Time;durP1;ratioP1;P1;durP2;ratioP2;P2;SDS_P1;SDS_P2;PMS_P1;PMS_P2;Temp;Humidity;BMP_temperature;BMP_pressure;BME280_temperature;BME280_humidity;BME280_pressure;Samples;Min_cycle;Max_cycle;Signal;HPM_P1;HPM_P2
2022/09/01 00:01:20;;;;;;;5.35;2.70;;;19.70;99.90;;;;;;5054556;28;20037;-74
2022/09/01 00:03:51;;;;;;;5.00;2.95;;;19.70;99.90;;;;;;5053398;28;20028;-74
2022/09/01 00:06:23;;;;;;;5.10;2.97;;;19.70;99.90;;;;;;5055700;28;20043;-74
2022/09/01 00:08:50;;;;;;;5.00;3.60;;;19.60;99.90;;;;;;5053188;28;20041;-73
2022/09/01 00:11:16;;;;;;;5.78;3.95;;;19.40;99.90;;;;;;5054091;28;20681;-74
2022/09/01 00:13:42;;;;;;;5.57;2.88;;;19.30;99.90;;;;;;5035483;28;20067;-73
2022/09/01 00:16:08;;;;;;;5.35;2.75;;;19.30;99.90;;;;;;5055240;28;20060;-74
2022/09/01 00:18:34;;;;;;;9.70;3.33;;;19.30;99.90;;;;;;5053635;28;20032;-74
2022/09/01 00:21:00;;;;;;;6.28;3.22;;;19.30;99.90;;;;;;5055130;28;20063;-74
2022/09/01 00:23:27;;;;;;;5.97;2.35;;;19.30;99.90;;;;;;5053857;28;20032;-74
2022/09/01 00:25:54;;;;;;;4.53;2.50;;;19.40;99.90;;;;;;5055839;28;20095;-74
2022/09/01 00:28:20;;;;;;;5.32;2.50;;;19.50;99.90;;;;;;5053344;28;20115;-74
2022/09/01 00:30:45;;;;;;;3.85;2.00;;;19.50;99.90;;;;;;5053908;28;20491;-74
2022/09/01 00:33:11;;;;;;;7.78;2.58;;;19.40;99.90;;;;;;5053743;28;20530;-74
2022/09/01 00:35:37;;;;;;;4.78;2.40;;;19.40;99.90;;;;;;5054281;28;20037;-74
2022/09/01 00:38:03;;;;;;;7.30;2.50;;;19.40;99.90;;;;;;5052026;28;20506;-74
2022/09/01 00:40:28;;;;;;;4.82;2.38;;;19.40;99.90;;;;;;5058627;28;20064;-74
2022/09/01 00:42:54;;;;;;;4.00;2.10;;;19.50;99.90;;;;;;5050544;28;20047;-74
2022/09/01 00:45:20;;;;;;;8.30;3.28;;;19.50;99.90;;;;;;5053392;28;20029;-74
2022/09/01 00:47:47;;;;;;;4.00;2.42;;;19.40;99.90;;;;;;5054529;28;20025;-74
2022/09/01 00:50:16;;;;;;;4.35;2.25;;;19.50;99.90;;;;;;5053705;28;20029;-73
2022/09/01 00:52:50;;;;;;;4.07;1.98;;;19.40;99.90;;;;;;5053080;28;20029;-74
2022/09/01 00:55:22;;;;;;;4.87;2.30;;;19.40;99.90;;;;;;5052683;28;20045;-73
2022/09/01 00:57:48;;;;;;;3.90;2.33;;;19.40;99.90;;;;;;5067124;28;20378;-74
2022/09/01 01:00:24;;;;;;;5.07;2.17;;;19.40;99.90;;;;;;5061496;28;20049;-74
2022/09/01 01:02:57;;;;;;;4.43;2.40;;;19.40;99.90;;;;;;5053418;28;20029;-74
2022/09/01 01:05:26;;;;;;;4.13;2.20;;;19.40;99.90;;;;;;5059391;28;20560;-74
2022/09/01 01:07:54;;;;;;;4.82;2.30;;;19.40;99.90;;;;;;5069565;28;20496;-74
2022/09/01 01:10:21;;;;;;;3.42;2.05;;;19.40;99.90;;;;;;5064028;28;20485;-74
2022/09/01 01:12:50;;;;;;;5.35;2.80;;;19.30;99.90;;;;;;5062731;28;20161;-74
2022/09/01 01:15:17;;;;;;;4.00;2.47;;;19.30;99.90;;;;;;5061096;28;20055;-74
2022/09/01 01:17:44;;;;;;;7.43;2.53;;;19.30;99.90;;;;;;5067821;28;20025;-74
2022/09/01 01:23:07;;;;;;;3.42;2.00;;;19.20;99.90;;;;;;5069977;28;20049;-73
2022/09/01 01:25:47;;;;;;;7.68;1.92;;;19.20;99.90;;;;;;5049072;28;20060;-74
2022/09/01 01:28:15;;;;;;;6.07;2.58;;;19.20;99.90;;;;;;5050908;28;20032;-74
2022/09/01 01:30:51;;;;;;;5.18;2.72;;;19.20;99.90;;;;;;5065626;28;20155;-74
2022/09/01 01:33:21;;;;;;;4.78;2.10;;;19.20;99.90;;;;;;5067019;28;20138;-74
2022/09/01 01:35:47;;;;;;;6.63;2.15;;;19.20;99.90;;;;;;5046406;28;20025;-74
2022/09/01 01:38:15;;;;;;;6.07;2.00;;;19.10;99.90;;;;;;5053361;28;20040;-74
2022/09/01 01:40:41;;;;;;;5.57;2.10;;;19.10;99.90;;;;;;5066234;28;20094;-73
2022/09/01 01:43:07;;;;;;;6.07;2.10;;;19.00;99.90;;;;;;5073041;28;20116;-73
2022/09/01 01:45:33;;;;;;;5.18;2.35;;;18.90;99.90;;;;;;5066884;28;20025;-74
2022/09/01 01:47:59;;;;;;;5.00;2.30;;;19.00;99.90;;;;;;5057361;28;20039;-74
2022/09/01 01:50:32;;;;;;;10.57;2.00;;;18.90;99.90;;;;;;5062360;28;20025;-74
2022/09/01 01:53:00;;;;;;;5.72;1.98;;;18.90;99.90;;;;;;5072751;28;20070;-74
2022/09/01 01:55:29;;;;;;;5.07;2.10;;;18.90;99.90;;;;;;5067809;28;20025;-74
2022/09/01 01:57:57;;;;;;;4.15;1.80;;;18.80;99.90;;;;;;5058649;28;20064;-74
2022/09/01 02:00:27;;;;;;;3.83;2.03;;;18.80;99.90;;;;;;5061869;28;20398;-74
2022/09/01 02:02:53;;;;;;;7.32;2.28;;;18.80;99.90;;;;;;5057256;28;20040;-74
2022/09/01 02:05:23;;;;;;;4.72;1.90;;;18.80;99.90;;;;;;5058935;28;20083;-74
2022/09/01 02:07:54;;;;;;;3.92;2.38;;;18.80;99.90;;;;;;5059030;28;20056;-74
2022/09/01 02:10:25;;;;;;;5.93;1.60;;;18.80;99.90;;;;;;5059039;28;20115;-74
2022/09/01 02:12:51;;;;;;;5.38;1.75;;;18.80;99.90;;;;;;5070629;28;20029;-74
2022/09/01 02:15:17;;;;;;;3.63;1.70;;;18.80;99.90;;;;;;5070385;28;20063;-74
2022/09/01 02:17:43;;;;;;;4.22;1.88;;;18.90;99.90;;;;;;5072103;28;20151;-74
2022/09/01 02:20:09;;;;;;;2.70;1.50;;;18.90;99.90;;;;;;5060725;28;20136;-74
2022/09/01 02:22:36;;;;;;;3.47;2.20;;;19.00;99.90;;;;;;5068099;28;20526;-73
2022/09/01 02:25:04;;;;;;;3.85;1.80;;;19.00;99.90;;;;;;5070039;28;20028;-74
2022/09/01 02:27:32;;;;;;;6.10;1.90;;;19.00;99.90;;;;;;5072713;28;20078;-74
2022/09/01 02:29:59;;;;;;;4.38;1.92;;;18.90;99.90;;;;;;5066510;28;20032;-73
2022/09/01 02:32:25;;;;;;;2.92;1.38;;;18.90;99.90;;;;;;5069975;28;20066;-73
2022/09/01 02:34:52;;;;;;;3.00;1.40;;;18.90;99.90;;;;;;5071151;28;20036;-73
2022/09/01 02:37:24;;;;;;;5.38;2.67;;;18.90;99.90;;;;;;5064999;28;20032;-74
2022/09/01 02:39:52;;;;;;;3.90;1.50;;;18.70;99.90;;;;;;5068601;28;20040;-74
2022/09/01 02:42:26;;;;;;;2.83;1.60;;;18.80;99.90;;;;;;5057699;28;20033;-74
2022/09/01 02:44:52;;;;;;;;;;;18.70;99.90;;;;;;5058636;28;20031;-74
2022/09/01 02:47:18;;;;;;;2.92;1.60;;;18.60;99.90;;;;;;5052170;28;19916;-74
2022/09/01 02:49:44;;;;;;;5.32;1.63;;;18.70;99.90;;;;;;5068854;28;20029;-74
2022/09/01 02:52:10;;;;;;;4.55;1.67;;;18.70;99.90;;;;;;5064708;28;20029;-73
2022/09/01 02:54:36;;;;;;;4.55;1.52;;;18.50;99.90;;;;;;5070338;28;20032;-74
2022/09/01 02:57:02;;;;;;;4.10;1.50;;;18.50;99.90;;;;;;5054349;28;20142;-74
2022/09/01 02:59:29;;;;;;;5.68;1.65;;;18.40;99.90;;;;;;5063296;28;20490;-73
2022/09/01 03:01:56;;;;;;;3.40;1.50;;;18.30;99.90;;;;;;5055414;28;20037;-72
2022/09/01 03:04:23;;;;;;;6.25;1.67;;;18.30;99.90;;;;;;5046147;28;20102;-72
2022/09/01 03:06:52;;;;;;;6.25;1.83;;;18.30;99.90;;;;;;5060369;28;20459;-72
2022/09/01 03:09:18;;;;;;;2.92;1.60;;;18.30;99.90;;;;;;5065924;28;20020;-73
2022/09/01 03:11:48;;;;;;;3.00;1.58;;;18.30;99.90;;;;;;5051708;28;20028;-73
2022/09/01 03:14:15;;;;;;;2.60;1.45;;;18.20;99.90;;;;;;5062823;28;20028;-73
2022/09/01 03:16:41;;;;;;;3.10;1.60;;;18.30;99.90;;;;;;5048990;28;20530;-72
2022/09/01 03:19:08;;;;;;;4.85;1.95;;;18.30;99.90;;;;;;5058098;28;20017;-73
2022/09/01 03:21:39;;;;;;;5.30;2.00;;;18.30;99.90;;;;;;5061195;28;20044;-73
2022/09/01 03:24:13;;;;;;;2.63;1.38;;;18.20;99.90;;;;;;5066481;28;20085;-72
2022/09/01 03:26:39;;;;;;;5.32;1.80;;;18.30;99.90;;;;;;5057535;28;20029;-73
2022/09/01 03:29:05;;;;;;;3.25;1.50;;;18.40;99.90;;;;;;5048642;28;20493;-72
2022/09/01 03:31:30;;;;;;;3.65;1.88;;;18.40;99.90;;;;;;5057421;28;20028;-72
2022/09/01 03:33:57;;;;;;;8.93;1.70;;;18.40;99.90;;;;;;5058813;28;20036;-72
2022/09/01 03:36:24;;;;;;;3.78;1.55;;;18.40;99.90;;;;;;5056767;28;20086;-72
2022/09/01 03:38:51;;;;;;;4.30;1.52;;;18.40;99.90;;;;;;5066608;28;20082;-72
2022/09/01 03:41:21;;;;;;;12.13;1.92;;;18.30;99.90;;;;;;5062446;28;20064;-72
2022/09/01 03:43:47;;;;;;;3.28;1.80;;;18.30;99.90;;;;;;5066492;28;20063;-72
2022/09/01 03:46:20;;;;;;;4.28;1.73;;;18.30;99.90;;;;;;5055530;28;20537;-72
2022/09/01 03:48:49;;;;;;;10.13;2.47;;;18.40;99.90;;;;;;5061141;28;20024;-72
2022/09/01 03:51:15;;;;;;;4.45;1.50;;;18.50;99.90;;;;;;5060271;28;20539;-72
2022/09/01 03:53:41;;;;;;;5.00;1.65;;;18.40;99.90;;;;;;5061591;28;20060;-72
2022/09/01 03:56:07;;;;;;;2.40;1.33;;;18.20;99.90;;;;;;5049855;28;20083;-72
2022/09/01 03:58:34;;;;;;;2.65;1.30;;;18.20;99.90;;;;;;5062982;28;20062;-72
2022/09/01 04:01:01;;;;;;;6.20;1.52;;;18.20;99.90;;;;;;5059668;28;20572;-73
2022/09/01 04:03:30;;;;;;;3.47;1.48;;;18.10;99.90;;;;;;5052799;28;20083;-72
2022/09/01 04:05:57;;;;;;;3.45;1.40;;;18.10;99.90;;;;;;5060280;28;20063;-72
2022/09/01 04:08:33;;;;;;;2.67;1.50;;;18.00;99.90;;;;;;5054698;28;20395;-73
2022/09/01 04:11:12;;;;;;;6.93;1.73;;;18.00;99.90;;;;;;5060156;28;20467;-73
2022/09/01 04:13:39;;;;;;;6.20;1.75;;;18.00;99.90;;;;;;5050756;28;20065;-72
2022/09/01 04:18:03;;;;;;;3.45;1.73;;;17.90;99.90;;;;;;5045936;28;20021;-72
2022/09/01 04:18:52;;;;;;;8.65;2.13;;;17.80;99.90;;;;;;5057331;28;20655;-72
2022/09/01 04:21:18;;;;;;;4.45;1.95;;;17.90;99.90;;;;;;5057835;28;21068;-73
2022/09/01 04:23:45;;;;;;;5.03;1.58;;;17.90;99.90;;;;;;5056251;28;20033;-73
2022/09/01 04:26:19;;;;;;;4.80;1.73;;;18.00;99.90;;;;;;5047362;28;20869;-72
2022/09/01 04:28:47;;;;;;;2.95;1.27;;;18.00;99.90;;;;;;5045878;28;20575;-73
2022/09/01 04:31:20;;;;;;;2.60;1.23;;;18.00;99.90;;;;;;5061255;28;20044;-72
2022/09/01 04:33:51;;;;;;;4.35;1.42;;;18.00;99.90;;;;;;5046102;28;20112;-72
2022/09/01 04:36:19;;;;;;;2.83;1.67;;;17.90;99.90;;;;;;5043498;28;20536;-72
2022/09/01 04:38:45;;;;;;;3.80;1.80;;;17.70;99.90;;;;;;5053707;28;20539;-73
2022/09/01 04:41:16;;;;;;;12.23;1.80;;;17.80;99.90;;;;;;5055517;28;20033;-72
2022/09/01 04:43:44;;;;;;;3.05;1.58;;;17.80;99.90;;;;;;5050411;28;20336;-72
2022/09/01 04:46:12;;;;;;;3.45;1.40;;;17.90;99.90;;;;;;5049983;28;20017;-73
2022/09/01 04:48:42;;;;;;;2.85;1.58;;;17.90;99.90;;;;;;5062683;28;20529;-72
2022/09/01 04:51:09;;;;;;;4.53;1.25;;;17.70;99.90;;;;;;5047454;28;20025;-72
2022/09/01 04:53:35;;;;;;;3.65;1.63;;;17.80;99.90;;;;;;5046809;28;20052;-73
2022/09/01 04:56:06;;;;;;;4.65;1.65;;;17.80;99.90;;;;;;5049507;28;20068;-73
2022/09/01 04:58:32;;;;;;;5.55;1.50;;;17.90;99.90;;;;;;5061732;28;20048;-72
2022/09/01 05:00:59;;;;;;;5.45;1.45;;;17.90;99.90;;;;;;5049315;28;20100;-72
2022/09/01 05:03:25;;;;;;;2.75;1.25;;;18.00;99.90;;;;;;5055153;28;20036;-73
2022/09/01 05:05:52;;;;;;;4.10;1.55;;;18.10;99.90;;;;;;5063781;28;20029;-72
2022/09/01 05:08:22;;;;;;;2.40;1.25;;;18.00;99.90;;;;;;5052355;28;20119;-73
2022/09/01 05:10:51;;;;;;;4.72;2.10;;;18.00;99.90;;;;;;5057255;28;20033;-72
2022/09/01 05:13:18;;;;;;;4.03;1.65;;;18.10;99.90;;;;;;5056655;28;20063;-73
2022/09/01 05:15:46;;;;;;;3.03;1.40;;;18.10;99.90;;;;;;5062687;28;20026;-72
2022/09/01 05:18:23;;;;;;;3.15;1.58;;;18.10;99.90;;;;;;5058298;28;20040;-73
2022/09/01 05:20:53;;;;;;;2.63;1.10;;;18.20;99.90;;;;;;5065146;28;20402;-72
2022/09/01 05:23:19;;;;;;;2.75;1.10;;;18.20;99.90;;;;;;5066089;28;20625;-72
2022/09/01 05:25:48;;;;;;;3.25;1.20;;;18.10;99.90;;;;;;5057037;28;20364;-72
2022/09/01 05:28:18;;;;;;;5.55;1.40;;;18.10;99.90;;;;;;5050105;28;20610;-72
2022/09/01 05:30:46;;;;;;;3.10;1.13;;;18.20;99.90;;;;;;5072448;28;20083;-71
2022/09/01 05:33:15;;;;;;;3.22;1.10;;;18.20;99.90;;;;;;5066042;28;20039;-73
2022/09/01 05:35:50;;;;;;;2.72;1.00;;;18.10;99.90;;;;;;5061937;28;20077;-73
2022/09/01 05:38:17;;;;;;;3.97;1.35;;;18.10;99.90;;;;;;5065685;28;20055;-74
2022/09/01 05:40:43;;;;;;;3.70;1.00;;;18.10;99.90;;;;;;5050504;28;20490;-73
2022/09/01 05:43:12;;;;;;;2.38;1.27;;;18.10;99.90;;;;;;5054718;28;20040;-73
2022/09/01 05:45:42;;;;;;;2.28;1.10;;;18.10;99.90;;;;;;5045198;28;20025;-73
2022/09/01 05:48:12;;;;;;;4.22;1.25;;;18.10;99.90;;;;;;5063825;28;20020;-73
2022/09/01 05:50:41;;;;;;;3.65;1.20;;;18.10;99.90;;;;;;5058891;28;20032;-73
2022/09/01 05:53:16;;;;;;;3.20;1.00;;;18.20;99.90;;;;;;5064268;28;20037;-73
2022/09/01 05:55:47;;;;;;;2.67;1.20;;;18.10;99.90;;;;;;5047052;28;20123;-73
2022/09/01 05:58:16;;;;;;;4.57;1.15;;;18.20;99.90;;;;;;5046271;28;20047;-73
2022/09/01 06:00:48;;;;;;;5.18;1.35;;;18.10;99.90;;;;;;5045008;28;20395;-74
2022/09/01 06:03:15;;;;;;;3.83;1.13;;;18.00;99.90;;;;;;5049855;28;20455;-73
2022/09/01 06:05:42;;;;;;;3.47;1.38;;;18.00;99.90;;;;;;5052979;28;20062;-73
2022/09/01 06:08:09;;;;;;;4.00;1.55;;;18.00;99.90;;;;;;5057567;28;20029;-73
2022/09/01 06:10:40;;;;;;;1.92;1.00;;;18.00;99.90;;;;;;5046633;28;20063;-73
2022/09/01 06:13:07;;;;;;;4.03;1.65;;;18.10;99.90;;;;;;5045741;28;21030;-73
2022/09/01 06:15:35;;;;;;;2.80;1.25;;;18.10;99.90;;;;;;5045662;28;20562;-74
2022/09/01 06:18:01;;;;;;;5.65;1.02;;;18.20;99.90;;;;;;5060056;28;20024;-73
2022/09/01 06:20:26;;;;;;;3.00;1.25;;;18.30;99.90;;;;;;5047200;28;20579;-73
2022/09/01 06:22:53;;;;;;;2.75;1.30;;;18.40;99.90;;;;;;5051390;28;20066;-73
2022/09/01 06:25:20;;;;;;;2.72;1.30;;;18.30;99.90;;;;;;5056130;28;20028;-73
2022/09/01 06:27:47;;;;;;;2.83;1.33;;;18.40;99.90;;;;;;5049956;28;20617;-74
2022/09/01 06:30:16;;;;;;;3.20;1.08;;;18.40;99.90;;;;;;5046097;28;20033;-74
2022/09/01 06:32:43;;;;;;;2.20;1.00;;;18.30;99.90;;;;;;5045491;28;20021;-74
2022/09/01 06:35:10;;;;;;;3.00;1.48;;;18.40;99.90;;;;;;5045057;28;20396;-73
2022/09/01 06:37:37;;;;;;;2.60;1.02;;;18.60;99.90;;;;;;5046445;28;20040;-72
2022/09/01 06:40:04;;;;;;;6.28;1.00;;;18.80;99.90;;;;;;5055472;28;20033;-74
2022/09/01 06:42:33;;;;;;;4.97;1.05;;;18.90;99.90;;;;;;5051118;28;20041;-74
2022/09/01 06:45:00;;;;;;;5.00;1.02;;;19.10;99.90;;;;;;5050715;28;20032;-73
2022/09/01 06:47:27;;;;;;;2.33;1.15;;;19.40;99.90;;;;;;5064064;28;20059;-75
2022/09/01 06:49:58;;;;;;;2.80;1.00;;;19.60;99.90;;;;;;5057964;28;20028;-74
2022/09/01 06:52:24;;;;;;;2.20;0.98;;;20.10;99.90;;;;;;5064060;28;20024;-74
2022/09/01 06:54:54;;;;;;;2.55;1.00;;;20.80;99.90;;;;;;5050655;28;20090;-74
2022/09/01 06:57:21;;;;;;;2.40;1.10;;;21.70;99.90;;;;;;5050127;28;20187;-74
2022/09/01 06:59:47;;;;;;;4.45;1.20;;;22.60;99.90;;;;;;5061047;28;20074;-75
2022/09/01 07:02:18;;;;;;;2.40;1.00;;;22.20;99.90;;;;;;5049791;28;20552;-75
2022/09/01 07:04:44;;;;;;;4.55;1.27;;;22.80;99.40;;;;;;5060075;28;20036;-74
2022/09/01 07:07:11;;;;;;;8.35;1.52;;;23.40;99.00;;;;;;5051445;28;20029;-75
2022/09/01 07:09:39;;;;;;;3.35;0.90;;;23.70;98.10;;;;;;5047342;28;20025;-74
2022/09/01 07:12:05;;;;;;;2.35;0.90;;;24.50;97.10;;;;;;5049271;28;20031;-75
2022/09/01 07:14:31;;;;;;;1.70;0.88;;;25.40;96.00;;;;;;5051204;28;20028;-75
2022/09/01 07:16:57;;;;;;;3.05;0.70;;;25.30;94.70;;;;;;5047311;28;20589;-75
2022/09/01 07:19:24;;;;;;;1.83;0.90;;;25.00;95.00;;;;;;5048299;28;20037;-75
2022/09/01 07:21:51;;;;;;;1.95;0.90;;;24.90;95.40;;;;;;5046315;28;20041;-75
2022/09/01 07:24:19;;;;;;;1.13;0.68;;;23.90;95.20;;;;;;5045681;28;20040;-75
2022/09/01 07:26:49;;;;;;;2.35;1.00;;;23.20;96.80;;;;;;5051733;28;20668;-74
2022/09/01 07:29:20;;;;;;;2.90;1.00;;;22.20;98.30;;;;;;5052838;28;20379;-75
2022/09/01 07:31:46;;;;;;;2.53;1.00;;;21.60;99.90;;;;;;5060139;28;20385;-75
2022/09/01 07:34:13;;;;;;;2.83;0.77;;;21.10;99.90;;;;;;5047679;28;20052;-75
2022/09/01 07:36:40;;;;;;;2.22;0.90;;;20.90;99.90;;;;;;5043959;28;20040;-74
2022/09/01 07:39:07;;;;;;;4.22;0.90;;;20.60;99.90;;;;;;5059357;28;20025;-75
2022/09/01 07:41:33;;;;;;;6.35;1.52;;;20.50;99.90;;;;;;5053406;28;20043;-75
2022/09/01 07:44:02;;;;;;;2.15;0.88;;;20.30;99.90;;;;;;5057743;28;20028;-75
2022/09/01 07:46:30;;;;;;;2.42;0.98;;;20.30;99.90;;;;;;5061593;28;20501;-75
2022/09/01 07:48:56;;;;;;;2.13;1.00;;;20.30;99.90;;;;;;5060709;28;20069;-75
2022/09/01 07:51:23;;;;;;;2.13;1.00;;;20.20;99.90;;;;;;5059698;28;20031;-76
2022/09/01 07:53:49;;;;;;;1.20;0.80;;;20.30;99.90;;;;;;5051237;28;20391;-75
2022/09/01 07:56:17;;;;;;;3.78;1.20;;;20.50;99.90;;;;;;5056853;28;20115;-75
2022/09/01 07:58:44;;;;;;;2.33;1.15;;;20.60;99.90;;;;;;5054822;28;20041;-75
2022/09/01 08:01:18;;;;;;;1.02;0.68;;;20.70;99.90;;;;;;5055003;28;20372;-75
2022/09/01 08:03:47;;;;;;;5.95;1.23;;;20.70;99.90;;;;;;5053637;28;20033;-75
2022/09/01 08:06:19;;;;;;;2.63;1.00;;;20.80;99.90;;;;;;5066708;28;20035;-76
2022/09/01 08:08:46;;;;;;;3.22;1.00;;;20.90;99.90;;;;;;5054537;28;20036;-75
2022/09/01 08:11:21;;;;;;;2.50;0.90;;;21.00;99.90;;;;;;5062727;28;20028;-75
2022/09/01 08:13:47;;;;;;;2.35;1.30;;;21.10;99.90;;;;;;5063931;28;20487;-75
2022/09/01 08:16:14;;;;;;;3.60;1.30;;;21.20;99.90;;;;;;5057896;28;20036;-75
2022/09/01 08:18:41;;;;;;;2.47;1.20;;;21.10;99.90;;;;;;5047105;28;20040;-75
2022/09/01 08:21:09;;;;;;;1.83;0.82;;;21.10;99.90;;;;;;5058983;28;20537;-75
2022/09/01 08:23:36;;;;;;;3.55;1.10;;;21.10;99.80;;;;;;5063693;28;20534;-75
2022/09/01 08:26:05;;;;;;;2.80;1.10;;;21.20;99.40;;;;;;5047034;28;20085;-75
2022/09/01 08:28:32;;;;;;;2.60;1.60;;;21.30;99.60;;;;;;5056432;28;20450;-76
2022/09/01 08:30:59;;;;;;;2.20;0.98;;;21.30;99.90;;;;;;5047250;28;20032;-75
2022/09/01 08:33:26;;;;;;;1.85;1.00;;;21.40;99.90;;;;;;5052234;28;20032;-76
2022/09/01 08:35:51;;;;;;;1.63;0.90;;;21.60;99.90;;;;;;5065082;28;20382;-76
2022/09/01 08:38:18;;;;;;;2.53;1.15;;;21.50;99.90;;;;;;5052944;28;20033;-76
2022/09/01 08:40:52;;;;;;;3.15;0.95;;;21.50;99.90;;;;;;5064567;28;20184;-76
2022/09/01 08:43:24;;;;;;;6.07;1.40;;;21.40;99.80;;;;;;5051831;28;20036;-76
2022/09/01 08:45:55;;;;;;;4.00;1.10;;;21.30;99.20;;;;;;5055991;28;20138;-75
2022/09/01 08:48:36;;;;;;;2.63;1.10;;;21.40;99.20;;;;;;5058426;28;20025;-75
2022/09/01 08:51:31;;;;;;;4.28;1.83;;;22.00;99.90;;;;;;5055901;28;20467;-76
2022/09/01 08:53:59;;;;;;;2.53;1.25;;;23.80;97.60;;;;;;5054625;28;20675;-76
2022/09/01 08:56:25;;;;;;;3.00;1.45;;;25.00;96.10;;;;;;5051111;28;20041;-76
2022/09/01 08:58:51;;;;;;;2.78;1.10;;;25.90;94.70;;;;;;5046466;28;20053;-76
2022/09/01 09:01:29;;;;;;;4.60;1.10;;;26.00;93.90;;;;;;5046584;28;20593;-76
2022/09/01 09:04:15;;;;;;;2.47;1.15;;;26.30;94.20;;;;;;5058500;28;20035;-76
2022/09/01 09:07:00;;;;;;;4.75;1.60;;;26.00;94.50;;;;;;5044766;28;20029;-76
2022/09/01 09:09:42;;;;;;;2.65;1.05;;;26.00;93.90;;;;;;5052273;28;20111;-76
2022/09/01 09:12:40;;;;;;;2.78;0.93;;;26.70;94.60;;;;;;5063068;28;20025;-76
2022/09/01 09:15:36;;;;;;;5.20;1.05;;;27.30;94.10;;;;;;5060261;28;20354;-75
2022/09/01 09:18:18;;;;;;;2.13;0.93;;;28.40;92.60;;;;;;5035005;28;20041;-76
2022/09/01 09:20:44;;;;;;;4.28;1.10;;;28.30;92.60;;;;;;5047608;28;20033;-76
2022/09/01 09:23:28;;;;;;;2.88;1.15;;;25.70;93.60;;;;;;5055367;28;20115;-76
2022/09/01 09:25:54;;;;;;;2.25;0.93;;;25.50;94.70;;;;;;5050015;28;20538;-75
2022/09/01 09:28:19;;;;;;;8.07;1.23;;;26.50;94.60;;;;;;5056247;28;20120;-76
2022/09/01 09:30:45;;;;;;;1.98;1.00;;;25.90;93.60;;;;;;5055149;28;20497;-75
2022/09/01 09:33:33;;;;;;;2.22;1.27;;;25.10;93.70;;;;;;5045635;28;20045;-76
2022/09/01 09:36:20;;;;;;;2.72;1.02;;;24.50;95.30;;;;;;5045693;28;20517;-76
2022/09/01 09:38:46;;;;;;;2.28;1.00;;;23.90;94.20;;;;;;5045221;28;20029;-76
2022/09/01 09:41:14;;;;;;;2.17;0.90;;;23.90;94.80;;;;;;5051269;28;20413;-76
2022/09/01 09:44:05;;;;;;;2.33;1.17;;;24.10;95.80;;;;;;5057049;28;20068;-76
2022/09/01 09:46:31;;;;;;;1.92;1.15;;;23.70;95.00;;;;;;5048209;28;20430;-75
2022/09/01 09:49:06;;;;;;;3.45;1.20;;;23.60;96.30;;;;;;5064294;28;20025;-76
2022/09/01 09:51:32;;;;;;;2.78;0.90;;;23.60;95.50;;;;;;5066131;28;20035;-76
2022/09/01 09:54:34;;;;;;;2.08;1.00;;;23.70;95.80;;;;;;5058567;28;20025;-76
2022/09/01 09:57:13;;;;;;;3.05;0.93;;;23.90;96.70;;;;;;4981752;28;20260;-76
2022/09/01 10:00:17;;;;;;;2.20;0.90;;;23.60;95.00;;;;;;5051736;28;20037;-76
2022/09/01 10:02:44;;;;;;;3.57;1.17;;;23.80;96.10;;;;;;5047820;28;20041;-76
2022/09/01 10:05:35;;;;;;;3.45;1.00;;;23.50;96.40;;;;;;5061098;28;20079;-76
2022/09/01 10:08:01;;;;;;;1.92;1.00;;;23.30;96.20;;;;;;5065531;28;20032;-75
2022/09/01 10:10:30;;;;;;;2.70;0.80;;;23.30;97.00;;;;;;5065145;28;20079;-76
2022/09/01 10:12:57;;;;;;;4.40;1.10;;;23.50;96.20;;;;;;5064973;28;20028;-76
2022/09/01 10:15:29;;;;;;;2.10;0.98;;;24.00;95.50;;;;;;5046967;28;20399;-76
2022/09/01 10:18:00;;;;;;;2.53;1.38;;;24.10;95.90;;;;;;5064525;28;20449;-76
2022/09/01 10:20:26;;;;;;;3.42;1.02;;;24.20;96.10;;;;;;5063778;28;20032;-76
2022/09/01 10:22:53;;;;;;;4.05;1.10;;;24.10;95.70;;;;;;5047937;28;20112;-76
2022/09/01 10:25:23;;;;;;;2.38;1.30;;;23.90;95.20;;;;;;5026113;28;20395;-76
2022/09/01 10:27:56;;;;;;;1.67;0.90;;;24.10;95.90;;;;;;5044906;28;20095;-76
2022/09/01 10:30:22;;;;;;;1.77;0.85;;;24.50;95.50;;;;;;5055070;28;20036;-76
2022/09/01 10:32:55;;;;;;;2.78;1.23;;;24.60;96.10;;;;;;5045606;28;20028;-76
2022/09/01 10:35:32;;;;;;;2.80;0.95;;;24.60;95.50;;;;;;5049818;28;20032;-76
2022/09/01 10:38:05;;;;;;;4.82;1.73;;;24.50;94.90;;;;;;5056135;28;20060;-76
2022/09/01 10:40:34;;;;;;;2.37;0.97;;;24.50;95.10;;;;;;5055550;28;20134;-76
2022/09/01 10:43:47;;;;;;;4.38;1.02;;;24.20;94.30;;;;;;5065812;28;20044;-76
2022/09/01 10:46:19;;;;;;;2.88;1.45;;;24.00;94.60;;;;;;5062311;28;20045;-76
2022/09/01 10:48:46;;;;;;;3.15;1.05;;;24.10;95.50;;;;;;5054932;28;20024;-76
2022/09/01 10:51:12;;;;;;;1.77;1.00;;;24.20;95.40;;;;;;5049741;28;20084;-76
2022/09/01 10:53:40;;;;;;;3.35;1.20;;;24.20;95.40;;;;;;5051598;28;20689;-76
2022/09/01 10:56:23;;;;;;;3.78;1.25;;;24.10;97.00;;;;;;5053132;28;20037;-76
2022/09/01 10:59:07;;;;;;;3.33;1.20;;;24.40;96.50;;;;;;5054130;28;20116;-76
2022/09/01 11:01:38;;;;;;;;;;;24.50;95.50;;;;;;5050466;28;20487;-76
2022/09/01 11:04:13;;;;;;;3.78;1.15;;;24.70;96.90;;;;;;5066560;28;19909;-76
2022/09/01 11:06:41;;;;;;;4.25;1.17;;;24.70;96.50;;;;;;5067362;28;20029;-76
2022/09/01 11:09:29;;;;;;;2.20;0.98;;;24.90;95.40;;;;;;5065165;28;20036;-76
2022/09/01 11:12:17;;;;;;;5.95;1.10;;;24.90;96.10;;;;;;5043372;28;20344;-76
2022/09/01 11:14:53;;;;;;;4.05;1.10;;;25.00;96.70;;;;;;5051701;28;20178;-76
2022/09/01 11:17:28;;;;;;;2.78;0.98;;;25.00;96.30;;;;;;5052588;28;20028;-77
2022/09/01 11:19:59;;;;;;;2.42;0.90;;;25.20;95.40;;;;;;5062029;28;20028;-78
2022/09/01 11:22:32;;;;;;;2.67;0.73;;;25.20;95.30;;;;;;5057202;28;20106;-75
2022/09/01 11:25:32;;;;;;;3.25;1.08;;;25.40;95.10;;;;;;5051747;28;20037;-73
2022/09/01 11:28:15;;;;;;;1.95;0.90;;;25.50;95.20;;;;;;5055768;28;20025;-75
2022/09/01 11:30:51;;;;;;;1.77;1.00;;;25.40;94.70;;;;;;5042940;28;20064;-75
2022/09/01 11:33:25;;;;;;;1.17;0.73;;;25.50;95.90;;;;;;5061911;28;20074;-75
2022/09/01 11:36:11;;;;;;;2.15;1.05;;;25.50;94.00;;;;;;5047310;28;20037;-75
2022/09/01 11:39:08;;;;;;;4.32;0.98;;;25.50;93.70;;;;;;5042858;28;20059;-75
2022/09/01 11:41:40;;;;;;;4.47;1.10;;;25.40;94.20;;;;;;5045830;28;20127;-75
2022/09/01 11:44:20;;;;;;;1.95;1.00;;;25.70;94.60;;;;;;5047858;28;20551;-76
2022/09/01 11:46:46;;;;;;;3.47;0.90;;;25.90;94.80;;;;;;5063022;28;20036;-77
2022/09/01 11:49:35;;;;;;;1.42;0.70;;;25.80;93.90;;;;;;5042502;28;20057;-77
2022/09/01 11:52:03;;;;;;;2.80;1.08;;;25.90;94.00;;;;;;5049457;28;20025;-75
2022/09/01 11:54:37;;;;;;;3.92;1.30;;;26.10;94.40;;;;;;5065264;28;20029;-75
2022/09/01 11:57:35;;;;;;;1.80;0.73;;;26.00;93.90;;;;;;5061121;28;20089;-76
2022/09/01 12:00:09;;;;;;;1.38;0.70;;;26.40;94.00;;;;;;5054574;28;20021;-76
2022/09/01 12:02:41;;;;;;;;;;;26.60;92.20;;;;;;5057211;28;20072;-75
2022/09/01 12:05:28;;;;;;;1.60;0.80;;;26.70;93.00;;;;;;5046510;28;20026;-75
2022/09/01 12:07:54;;;;;;;1.60;0.80;;;26.70;92.80;;;;;;5055710;28;20033;-76
2022/09/01 12:10:25;;;;;;;1.67;0.70;;;26.90;92.80;;;;;;5049260;28;20079;-75
2022/09/01 12:13:09;;;;;;;1.73;0.80;;;27.00;92.80;;;;;;5051952;28;20079;-76
2022/09/01 12:15:41;;;;;;;1.13;0.82;;;27.00;93.30;;;;;;5054765;28;20037;-76
2022/09/01 12:18:17;;;;;;;1.95;1.02;;;26.80;93.60;;;;;;5059765;28;20060;-76
2022/09/01 12:20:44;;;;;;;4.30;1.02;;;26.90;93.30;;;;;;5060234;28;20409;-78
2022/09/01 12:23:31;;;;;;;2.83;0.95;;;27.00;93.50;;;;;;5054568;28;20049;-78
2022/09/01 12:26:04;;;;;;;5.55;0.93;;;27.10;92.40;;;;;;5048597;28;20029;-77
2022/09/01 12:28:32;;;;;;;1.73;0.93;;;27.20;93.30;;;;;;5057639;28;20040;-77
2022/09/01 12:31:11;;;;;;;1.88;0.70;;;27.20;93.40;;;;;;5070358;28;20831;-77
2022/09/01 12:33:36;;;;;;;1.30;0.75;;;27.10;92.70;;;;;;5070430;28;20153;-78
2022/09/01 12:36:22;;;;;;;2.08;1.02;;;27.10;93.50;;;;;;5059392;28;20076;-77
2022/09/01 12:38:50;;;;;;;1.63;0.90;;;27.20;92.50;;;;;;5050040;28;20025;-77
2022/09/01 12:41:38;;;;;;;1.58;0.80;;;27.20;93.20;;;;;;5050629;28;20430;-77
2022/09/01 12:44:52;;;;;;;1.70;0.80;;;26.90;91.70;;;;;;5049521;28;20029;-77
2022/09/01 12:47:33;;;;;;;1.77;0.82;;;27.10;92.20;;;;;;5035849;28;20050;-77
2022/09/01 12:50:06;;;;;;;3.92;1.20;;;26.80;91.90;;;;;;5050391;28;20090;-77
2022/09/01 12:52:34;;;;;;;1.97;0.87;;;27.10;92.60;;;;;;5052985;28;20382;-78
2022/09/01 12:55:03;;;;;;;2.47;1.02;;;27.40;92.10;;;;;;5062893;28;20066;-77
2022/09/01 12:57:33;;;;;;;2.80;0.70;;;27.30;91.80;;;;;;5069567;28;20045;-78
2022/09/01 13:00:08;;;;;;;2.25;0.90;;;27.20;91.80;;;;;;5070130;28;20052;-78
2022/09/01 13:02:53;;;;;;;1.88;0.60;;;27.30;91.30;;;;;;5064331;28;20029;-79
2022/09/01 13:05:40;;;;;;;1.88;0.93;;;26.90;91.70;;;;;;5057037;28;20139;-76
2022/09/01 13:08:11;;;;;;;1.63;0.90;;;26.50;91.90;;;;;;5058932;28;20090;-75
2022/09/01 13:10:40;;;;;;;2.13;0.93;;;26.20;92.10;;;;;;5054514;28;20033;-75